createdAt,value
2017-03-09T00:00:57.077Z,93.36
2017-03-09T00:02:10.411Z,93.46
2017-03-09T00:03:23.954Z,93.75
2017-03-09T00:04:37.266Z,93.65
2017-03-09T00:05:50.607Z,93.46
2017-03-09T00:07:03.937Z,93.46
2017-03-09T00:08:18.676Z,93.41
2017-03-09T00:09:31.968Z,93.46
2017-03-09T00:10:45.324Z,93.36
2017-03-09T00:11:58.661Z,93.46
2017-03-09T00:13:12.004Z,93.55
2017-03-09T00:14:25.331Z,93.36
2017-03-09T00:15:38.080Z,92.97
2017-03-09T00:16:51.401Z,93.17
2017-03-09T00:18:04.750Z,93.55
2017-03-09T00:19:18.093Z,93.41
2017-03-09T00:20:31.655Z,93.51
2017-03-09T00:21:44.970Z,93.41
2017-03-09T00:22:58.331Z,93.41
2017-03-09T00:24:12.272Z,93.6
2017-03-09T00:25:25.032Z,93.7
2017-03-09T00:28:05.898Z,94.04
2017-03-09T00:29:19.232Z,94.38
2017-03-09T00:30:32.876Z,93.8
2017-03-09T00:31:45.633Z,93.9
2017-03-09T00:32:58.378Z,94.13
2017-03-09T00:35:38.952Z,93.32
2017-03-09T00:36:52.297Z,93.6
2017-03-09T00:38:05.033Z,93.26
2017-03-09T00:39:18.374Z,93.07
2017-03-09T00:40:31.751Z,93.07
2017-03-09T00:41:45.077Z,93.07
2017-03-09T00:42:58.412Z,92.78
2017-03-09T00:44:11.750Z,92.78
2017-03-09T00:45:25.098Z,92.49
2017-03-09T00:46:38.416Z,92.97
2017-03-09T00:47:51.745Z,93.07
2017-03-09T00:49:05.060Z,93.17
2017-03-09T00:50:32.336Z,93.17
2017-03-09T00:51:45.854Z,93.17
2017-03-09T00:53:13.173Z,92.97
2017-03-09T00:54:26.494Z,92.88
2017-03-09T00:55:39.831Z,92.88
2017-03-09T00:56:53.383Z,92.68
2017-03-09T00:58:06.715Z,92.68
2017-03-09T00:59:19.473Z,92.78
2017-03-09T01:00:32.794Z,92.68
2017-03-09T01:01:46.192Z,92.68
2017-03-09T01:02:59.544Z,92.78
2017-03-09T01:04:12.898Z,92.78
2017-03-09T01:05:26.270Z,92.74
2017-03-09T01:06:39.602Z,92.88
2017-03-09T01:07:53.139Z,92.88
2017-03-09T01:09:06.469Z,92.49
2017-03-09T01:10:47.722Z,92.68
2017-03-09T01:12:14.994Z,92.78
2017-03-09T01:13:28.315Z,93.07
2017-03-09T01:14:41.692Z,93.17
2017-03-09T01:15:55.282Z,92.93
2017-03-09T01:17:08.046Z,92.93
2017-03-09T01:18:21.360Z,92.44
2017-03-09T01:19:34.683Z,92.83
2017-03-09T01:20:48.027Z,92.78
2017-03-09T01:23:28.092Z,93.02
2017-03-09T01:24:41.419Z,93.41
2017-03-09T01:25:54.755Z,93.46
2017-03-09T01:27:07.576Z,93.22
2017-03-09T01:28:20.912Z,93.41
2017-03-09T01:29:34.278Z,93.32
2017-03-09T01:31:01.778Z,93.32
2017-03-09T01:32:15.179Z,93.32
2017-03-09T01:34:55.298Z,92.93
2017-03-09T01:36:08.629Z,93.12
2017-03-09T01:37:21.957Z,93.32
2017-03-09T01:38:34.736Z,93.41
2017-03-09T01:39:48.066Z,93.6
2017-03-09T01:41:01.428Z,93.41
2017-03-09T01:42:14.777Z,93.32
2017-03-09T01:43:28.102Z,94.09
2017-03-09T01:44:40.892Z,93.99
2017-03-09T01:45:54.243Z,94.09
2017-03-09T01:47:07.567Z,94.09
2017-03-09T01:48:20.335Z,93.7
2017-03-09T01:49:33.689Z,94.09
2017-03-09T01:50:47.032Z,93.41
2017-03-09T01:52:00.595Z,93.8
2017-03-09T01:53:13.931Z,93.7
2017-03-09T01:54:27.330Z,93.6
2017-03-09T01:55:40.676Z,93.6
2017-03-09T01:56:54.243Z,93.32
2017-03-09T01:58:06.977Z,93.36
2017-03-09T01:59:20.326Z,93.02
2017-03-09T02:00:33.670Z,93.02
2017-03-09T02:01:46.999Z,93.12
2017-03-09T02:03:00.549Z,93.02
2017-03-09T02:04:28.055Z,93.17
2017-03-09T02:07:08.904Z,92.74
2017-03-09T02:08:22.467Z,92.2
2017-03-09T02:09:35.798Z,92.2
2017-03-09T02:10:49.318Z,92
2017-03-09T02:12:02.666Z,91.67
2017-03-09T02:13:16.358Z,91.58
2017-03-09T02:14:29.134Z,90.99
2017-03-09T02:15:42.447Z,90.99
2017-03-09T02:17:09.174Z,91.04
2017-03-09T02:18:22.231Z,91.14
2017-03-09T02:19:35.567Z,91.09
2017-03-09T02:20:48.913Z,91.58
2017-03-09T02:22:02.269Z,91.67
2017-03-09T02:23:15.613Z,91.09
2017-03-09T02:25:55.680Z,90.99
2017-03-09T02:27:09.016Z,91.38
2017-03-09T02:28:22.185Z,90.7
2017-03-09T02:29:35.865Z,90.8
2017-03-09T02:30:49.322Z,90.8
2017-03-09T02:32:03.031Z,90.9
2017-03-09T02:33:30.363Z,91.19
2017-03-09T02:34:43.991Z,90.9
2017-03-09T02:35:57.663Z,91.48
2017-03-09T02:37:24.472Z,91.48
2017-03-09T02:38:37.439Z,91.38
2017-03-09T02:39:50.826Z,91.19
2017-03-09T02:41:04.219Z,90.9
2017-03-09T02:42:17.562Z,90.99
2017-03-09T02:43:30.670Z,90.99
2017-03-09T02:44:44.888Z,91.19
2017-03-09T02:45:57.649Z,90.22
2017-03-09T02:47:10.978Z,90.7
2017-03-09T02:48:24.314Z,90.32
2017-03-09T02:49:37.664Z,90.61
2017-03-09T02:50:51.003Z,90.61
2017-03-09T02:52:04.337Z,90.51
2017-03-09T02:53:17.702Z,90.03
2017-03-09T02:54:31.063Z,90.22
2017-03-09T02:55:43.856Z,90.41
2017-03-09T02:56:57.208Z,90.12
2017-03-09T02:58:09.976Z,90.32
2017-03-09T02:59:23.325Z,90.22
2017-03-09T03:00:36.269Z,90.22
2017-03-09T03:01:49.598Z,89.83
2017-03-09T03:03:03.128Z,90.22
2017-03-09T03:04:16.494Z,90.22
2017-03-09T03:05:29.837Z,91.19
2017-03-09T03:06:43.409Z,90.66
2017-03-09T03:07:56.186Z,90.75
2017-03-09T03:09:08.948Z,90.75
2017-03-09T03:10:21.704Z,90.85
2017-03-09T03:11:35.219Z,90.99
2017-03-09T03:12:47.988Z,91.09
2017-03-09T03:14:01.306Z,91.19
2017-03-09T03:15:14.648Z,90.8
2017-03-09T03:16:27.994Z,90.8
2017-03-09T03:17:40.943Z,91.09
2017-03-09T03:18:54.328Z,91.09
2017-03-09T03:20:21.642Z,91.38
2017-03-09T03:21:35.303Z,90.9
2017-03-09T03:22:48.642Z,90.99
2017-03-09T03:24:02.153Z,91.09
2017-03-09T03:25:15.671Z,91.09
2017-03-09T03:26:27.879Z,91.09
2017-03-09T03:27:41.419Z,91.28
2017-03-09T03:28:54.737Z,91.19
2017-03-09T03:30:08.134Z,90.99
2017-03-09T03:31:20.874Z,91.09
2017-03-09T03:32:33.071Z,90.99
2017-03-09T03:33:46.406Z,90.61
2017-03-09T03:34:59.736Z,90.8
2017-03-09T03:36:13.106Z,90.99
2017-03-09T03:37:26.437Z,90.8
2017-03-09T03:38:39.778Z,90.99
2017-03-09T03:39:52.512Z,90.8
2017-03-09T03:41:06.296Z,90.8
2017-03-09T03:42:19.641Z,90.8
2017-03-09T03:43:33.170Z,90.61
2017-03-09T03:44:46.503Z,90.7
2017-03-09T03:45:59.825Z,90.8
2017-03-09T03:47:13.131Z,90.8
2017-03-09T03:48:26.482Z,90.7
2017-03-09T03:49:39.843Z,90.8
2017-03-09T03:50:53.143Z,90.61
2017-03-09T03:52:06.469Z,90.8
2017-03-09T03:53:19.790Z,90.22
2017-03-09T03:54:32.755Z,90.12
2017-03-09T03:55:46.090Z,90.61
2017-03-09T03:56:59.398Z,90.8
2017-03-09T03:58:12.750Z,90.32
2017-03-09T03:59:26.076Z,90.85
2017-03-09T04:00:39.376Z,91.33
2017-03-09T04:01:52.720Z,91.14
2017-03-09T04:03:06.054Z,90.95
2017-03-09T04:04:20.100Z,91.33
2017-03-09T04:05:33.642Z,90.85
2017-03-09T04:06:46.422Z,90.75
2017-03-09T04:08:27.680Z,91.09
2017-03-09T04:09:40.984Z,90.66
2017-03-09T04:10:54.566Z,90.9
2017-03-09T04:12:07.320Z,91.05
2017-03-09T04:13:34.617Z,90.75
2017-03-09T04:14:47.937Z,90.85
2017-03-09T04:16:01.272Z,90.66
2017-03-09T04:17:14.597Z,90.99
2017-03-09T04:18:27.921Z,90.95
2017-03-09T04:19:41.244Z,90.7
2017-03-09T04:20:54.571Z,90.99
2017-03-09T04:22:08.118Z,90.32
2017-03-09T04:23:21.452Z,90.41
2017-03-09T04:24:48.735Z,90.51
2017-03-09T04:26:02.053Z,90.61
2017-03-09T04:27:15.367Z,90.12
2017-03-09T04:28:42.656Z,90.22
2017-03-09T04:29:55.971Z,90.41
2017-03-09T04:31:09.275Z,91.63
2017-03-09T04:32:22.021Z,92.21
2017-03-09T04:33:34.192Z,92.3
2017-03-09T04:34:47.508Z,92.3
2017-03-09T04:36:00.793Z,92.3
2017-03-09T04:37:13.824Z,92.11
2017-03-09T04:38:26.566Z,91.72
2017-03-09T04:39:39.884Z,91.82
2017-03-09T04:40:53.221Z,92.3
2017-03-09T04:42:07.262Z,91.82
2017-03-09T04:43:19.417Z,91.33
2017-03-09T04:44:32.150Z,91.33
2017-03-09T04:45:45.460Z,91.33
2017-03-09T04:46:58.772Z,91.82
2017-03-09T04:48:12.374Z,91.05
2017-03-09T04:49:39.645Z,90.9
2017-03-09T04:50:52.949Z,90.41
2017-03-09T04:52:06.270Z,90.75
2017-03-09T04:53:19.571Z,90.95
2017-03-09T04:54:32.872Z,90.85
2017-03-09T04:55:46.181Z,90.8
2017-03-09T04:57:13.069Z,90.85
2017-03-09T04:58:26.344Z,90.41
2017-03-09T04:59:39.638Z,90.22
2017-03-09T05:00:52.937Z,90.7
2017-03-09T05:02:06.223Z,89.83
2017-03-09T05:03:19.501Z,90.12
2017-03-09T05:04:32.782Z,89.64
2017-03-09T05:05:46.081Z,89.45
2017-03-09T05:06:59.373Z,90.22
2017-03-09T05:08:12.866Z,90.22
2017-03-09T05:09:54.095Z,90.32
2017-03-09T05:11:07.379Z,90.32
2017-03-09T05:12:34.635Z,90.32
2017-03-09T05:13:48.122Z,90.22
2017-03-09T05:15:01.402Z,89.93
2017-03-09T05:16:14.686Z,90.12
2017-03-09T05:17:27.992Z,90.22
2017-03-09T05:18:54.673Z,90.17
2017-03-09T05:20:07.960Z,90.32
2017-03-09T05:21:34.666Z,90.12
2017-03-09T05:22:47.951Z,90.03
2017-03-09T05:24:15.198Z,90.66
2017-03-09T05:25:28.498Z,90.56
2017-03-09T05:26:41.783Z,90.85
2017-03-09T05:27:54.518Z,90.37
2017-03-09T05:29:07.802Z,90.37
2017-03-09T05:30:21.282Z,90.56
2017-03-09T05:31:33.429Z,90.27
2017-03-09T05:32:46.708Z,90.27
2017-03-09T05:33:59.429Z,90.17
2017-03-09T05:35:13.009Z,90.37
2017-03-09T05:36:25.720Z,90.37
2017-03-09T05:37:38.987Z,90.27
2017-03-09T05:38:52.255Z,90.27
2017-03-09T05:40:05.552Z,90.7
2017-03-09T05:41:18.280Z,90.66
2017-03-09T05:42:31.575Z,90.66
2017-03-09T05:43:44.845Z,90.22
2017-03-09T05:44:57.571Z,90.12
2017-03-09T05:46:11.089Z,90.12
2017-03-09T05:47:24.356Z,90.12
2017-03-09T05:48:37.055Z,90.12
2017-03-09T05:49:50.342Z,90.08
2017-03-09T05:51:02.479Z,90.27
2017-03-09T05:52:15.966Z,90.17
2017-03-09T05:53:29.253Z,90.27
2017-03-09T05:54:42.561Z,90.47
2017-03-09T05:55:55.844Z,90.66
2017-03-09T05:57:09.438Z,90.66
2017-03-09T05:58:22.712Z,90.56
2017-03-09T05:59:36.000Z,90.61
2017-03-09T06:00:49.306Z,90.08
2017-03-09T06:02:02.023Z,90.75
2017-03-09T06:03:15.498Z,90.85
2017-03-09T06:04:28.791Z,90.85
2017-03-09T06:05:42.061Z,91.05
2017-03-09T06:06:55.327Z,90.95
2017-03-09T06:08:08.250Z,90.95
2017-03-09T06:09:20.976Z,90.75
2017-03-09T06:10:33.694Z,90.85
2017-03-09T06:12:00.976Z,91.14
2017-03-09T06:13:14.459Z,91.63
2017-03-09T06:14:27.746Z,91.05
2017-03-09T06:15:39.880Z,91.05
2017-03-09T06:16:53.166Z,91.14
2017-03-09T06:18:20.722Z,91.43
2017-03-09T06:19:33.444Z,91.53
2017-03-09T06:20:46.721Z,91.53
2017-03-09T06:22:00.019Z,91.82
2017-03-09T06:23:12.744Z,91.43
2017-03-09T06:24:40.298Z,91.33
2017-03-09T06:25:53.568Z,91.33
2017-03-09T06:27:06.280Z,91.05
2017-03-09T06:28:19.572Z,90.95
2017-03-09T06:29:33.083Z,91.72
2017-03-09T06:30:46.366Z,91.82
2017-03-09T06:31:59.640Z,91.33
2017-03-09T06:33:12.917Z,91.72
2017-03-09T06:34:25.623Z,91.53
2017-03-09T06:35:38.900Z,91.63
2017-03-09T06:36:52.169Z,92.11
2017-03-09T06:38:05.452Z,91.72
2017-03-09T06:39:18.157Z,92.16
2017-03-09T06:40:31.743Z,92.55
2017-03-09T06:41:45.027Z,92.45
2017-03-09T06:42:57.749Z,93.23
2017-03-09T06:44:11.033Z,93.51
2017-03-09T06:45:24.298Z,93.32
2017-03-09T06:46:51.570Z,93.08
2017-03-09T06:48:04.857Z,93.47
2017-03-09T06:49:17.584Z,93.32
2017-03-09T06:50:30.320Z,93.32
2017-03-09T06:53:09.708Z,92.65
2017-03-09T06:54:22.994Z,92.55
2017-03-09T06:55:36.293Z,92.55
2017-03-09T06:56:49.581Z,92.83
2017-03-09T06:58:02.857Z,93.23
2017-03-09T06:59:16.138Z,93.32
2017-03-09T07:00:28.872Z,93.32
2017-03-09T07:01:42.168Z,93.23
2017-03-09T07:02:54.898Z,92.65
2017-03-09T07:04:07.603Z,92.65
2017-03-09T07:05:20.890Z,92.83
2017-03-09T07:06:33.915Z,92.74
2017-03-09T07:07:47.237Z,92.65
2017-03-09T07:09:00.521Z,92.65
2017-03-09T07:10:13.832Z,92.74
2017-03-09T07:11:27.112Z,92.83
2017-03-09T07:12:40.621Z,92.69
2017-03-09T07:13:53.903Z,92.16
2017-03-09T07:15:07.204Z,92.25
2017-03-09T07:16:20.476Z,92.3
2017-03-09T07:17:47.737Z,92.4
2017-03-09T07:19:01.021Z,92.55
2017-03-09T07:20:13.728Z,92.45
2017-03-09T07:21:26.440Z,92.35
2017-03-09T07:22:39.736Z,92.45
2017-03-09T07:23:52.446Z,92.65
2017-03-09T07:25:19.696Z,92.45
2017-03-09T07:26:46.946Z,92.55
2017-03-09T07:28:00.230Z,92.93
2017-03-09T07:29:12.927Z,92.25
2017-03-09T07:30:25.653Z,92.74
2017-03-09T07:31:38.383Z,92.35
2017-03-09T07:32:51.654Z,92.07
2017-03-09T07:34:18.900Z,92.16
2017-03-09T07:35:31.609Z,92.35
2017-03-09T07:36:44.887Z,92.45
2017-03-09T07:37:58.155Z,92.25
2017-03-09T07:39:11.626Z,92.07
2017-03-09T07:40:24.915Z,92.25
2017-03-09T07:41:38.184Z,92.25
2017-03-09T07:42:51.462Z,91.97
2017-03-09T07:44:04.729Z,92.65
2017-03-09T07:45:18.296Z,92.16
2017-03-09T07:46:31.002Z,91.97
2017-03-09T07:47:44.306Z,92.25
2017-03-09T07:48:57.589Z,92.25
2017-03-09T07:50:10.860Z,92.07
2017-03-09T07:51:24.150Z,92.07
2017-03-09T07:52:50.823Z,92.07
2017-03-09T07:54:04.097Z,92.83
2017-03-09T07:55:17.684Z,92.83
2017-03-09T07:56:30.408Z,92.93
2017-03-09T07:57:43.114Z,92.83
2017-03-09T07:58:56.378Z,92.45
2017-03-09T08:00:09.125Z,91.97
2017-03-09T08:01:21.825Z,92.25
2017-03-09T08:02:34.529Z,92.45
2017-03-09T08:04:01.777Z,92.25
2017-03-09T08:05:29.024Z,92.74
2017-03-09T08:06:42.361Z,92.65
2017-03-09T08:08:09.607Z,92.65
2017-03-09T08:09:22.897Z,92.83
2017-03-09T08:10:36.473Z,92.55
2017-03-09T08:11:49.775Z,92.35
2017-03-09T08:13:03.048Z,92.6
2017-03-09T08:14:16.323Z,92.6
2017-03-09T08:15:29.035Z,92.35
2017-03-09T08:16:42.511Z,92.55
2017-03-09T08:17:55.798Z,92.65
2017-03-09T08:19:09.099Z,92.55
2017-03-09T08:20:22.373Z,92.65
2017-03-09T08:21:34.813Z,92.25
2017-03-09T08:22:48.103Z,92.74
2017-03-09T08:24:00.824Z,92.07
2017-03-09T08:25:14.095Z,92.65
2017-03-09T08:26:27.389Z,92.25
2017-03-09T08:27:40.103Z,92.45
2017-03-09T08:28:53.404Z,91.97
2017-03-09T08:30:20.113Z,91.67
2017-03-09T08:31:32.838Z,92.16
2017-03-09T08:32:46.892Z,91.97
2017-03-09T08:34:00.179Z,91.77
2017-03-09T08:35:13.457Z,91.77
2017-03-09T08:36:26.754Z,91.58
2017-03-09T08:40:13.716Z,92.07
2017-03-09T08:41:27.012Z,92.25
2017-03-09T08:42:40.312Z,92.65
2017-03-09T08:43:53.581Z,92.35
2017-03-09T08:45:06.888Z,92.25
2017-03-09T08:47:30.311Z,92.55
2017-03-09T08:48:57.767Z,93.61
2017-03-09T08:50:11.046Z,93.37
2017-03-09T08:51:24.335Z,93.23
2017-03-09T08:52:37.634Z,93.9
2017-03-09T08:53:50.391Z,93.66
2017-03-09T08:55:03.870Z,93.85
2017-03-09T08:56:17.139Z,93.18
2017-03-09T08:57:30.431Z,93.32
2017-03-09T08:58:43.732Z,93.23
2017-03-09T08:59:57.215Z,93.41
2017-03-09T09:01:10.510Z,93.61
2017-03-09T09:02:23.798Z,93.32
2017-03-09T09:03:37.078Z,93.32
2017-03-09T09:04:50.378Z,93.23
2017-03-09T09:06:03.292Z,93.41
2017-03-09T09:07:16.563Z,93.32
2017-03-09T09:08:29.844Z,93.32
2017-03-09T09:09:43.134Z,93.03
2017-03-09T09:10:56.738Z,93.18
2017-03-09T09:12:10.009Z,93.47
2017-03-09T09:13:23.306Z,94.62
2017-03-09T09:14:35.483Z,94.62
2017-03-09T09:16:03.050Z,94.92
2017-03-09T09:17:16.323Z,94.43
2017-03-09T09:18:29.598Z,94.53
2017-03-09T09:19:42.324Z,94.43
2017-03-09T09:20:55.613Z,93.85
2017-03-09T09:22:09.100Z,94.34
2017-03-09T09:23:22.377Z,94.34
2017-03-09T09:24:35.659Z,94.24
2017-03-09T09:25:48.365Z,94.34
2017-03-09T09:27:01.638Z,94.43
2017-03-09T09:28:14.916Z,94.62
2017-03-09T09:29:28.195Z,93.95
2017-03-09T09:30:41.470Z,93.56
2017-03-09T09:31:54.201Z,93.61
2017-03-09T09:33:07.510Z,93.23
2017-03-09T09:34:20.771Z,93.08
2017-03-09T09:35:34.045Z,93.47
2017-03-09T09:36:46.746Z,93.18
2017-03-09T09:38:00.040Z,93.27
2017-03-09T09:39:13.314Z,93.47
2017-03-09T09:40:26.605Z,93.27
2017-03-09T09:41:39.874Z,93.32
2017-03-09T09:42:53.156Z,92.93
2017-03-09T09:44:06.431Z,93.41
2017-03-09T09:45:19.144Z,92.93
2017-03-09T09:46:32.439Z,92.65
2017-03-09T09:47:45.708Z,93.13
2017-03-09T09:49:13.173Z,92.45
2017-03-09T09:50:26.447Z,92.65
2017-03-09T09:51:39.161Z,92.74
2017-03-09T09:52:52.437Z,92.93
2017-03-09T09:54:04.560Z,92.55
2017-03-09T09:55:17.848Z,92.35
2017-03-09T09:56:31.124Z,92.69
2017-03-09T09:57:43.830Z,92.69
2017-03-09T09:58:56.542Z,92.65
2017-03-09T10:00:09.278Z,92.65
2017-03-09T10:01:22.560Z,92.07
2017-03-09T10:02:35.273Z,92.25
2017-03-09T10:03:48.550Z,92.25
2017-03-09T10:05:01.837Z,92.07
2017-03-09T10:06:14.757Z,92.07
2017-03-09T10:07:28.028Z,91.87
2017-03-09T10:08:41.313Z,91.58
2017-03-09T10:09:54.601Z,91.39
2017-03-09T10:11:08.175Z,91.29
2017-03-09T10:12:49.415Z,90.42
2017-03-09T10:14:02.682Z,90.23
2017-03-09T10:15:15.964Z,90.95
2017-03-09T10:16:29.555Z,90.61
2017-03-09T10:17:42.847Z,90.52
2017-03-09T10:18:55.579Z,90.23
2017-03-09T10:20:08.856Z,90.91
2017-03-09T10:21:21.584Z,90.61
2017-03-09T10:22:34.865Z,90.61
2017-03-09T10:23:48.144Z,90.17
2017-03-09T10:25:01.446Z,90.13
2017-03-09T10:26:14.758Z,90.08
2017-03-09T10:27:27.475Z,89.69
2017-03-09T10:28:40.743Z,89.5
2017-03-09T10:29:54.042Z,89.79
2017-03-09T10:31:07.345Z,88.43
2017-03-09T10:32:20.635Z,88.53
2017-03-09T10:35:01.170Z,89.59
2017-03-09T10:36:14.446Z,88.92
2017-03-09T10:37:27.187Z,89.5
2017-03-09T10:38:54.466Z,89.21
2017-03-09T10:40:07.750Z,88.82
2017-03-09T10:41:21.034Z,88.73
2017-03-09T10:42:34.311Z,88.82
2017-03-09T10:43:47.649Z,88.43
2017-03-09T10:45:00.937Z,88.73
2017-03-09T10:46:14.237Z,88.34
2017-03-09T10:47:27.514Z,88.73
2017-03-09T10:48:41.071Z,88.53
2017-03-09T10:49:54.675Z,88.53
2017-03-09T10:51:08.219Z,88.63
2017-03-09T10:52:21.758Z,88.53
2017-03-09T10:53:34.864Z,89.11
2017-03-09T10:54:47.300Z,89.11
2017-03-09T10:56:14.774Z,88.73
2017-03-09T10:57:28.398Z,87.95
2017-03-09T10:58:41.985Z,88.05
2017-03-09T10:59:55.590Z,87.76
2017-03-09T11:01:23.047Z,87.27
2017-03-09T11:02:36.351Z,88.15
2017-03-09T11:03:49.399Z,87.76
2017-03-09T11:05:02.697Z,88.34
2017-03-09T11:06:15.992Z,88.24
2017-03-09T11:07:29.281Z,88.82
2017-03-09T11:08:42.589Z,88.73
2017-03-09T11:09:55.857Z,89.21
2017-03-09T11:11:08.579Z,89.11
2017-03-09T11:12:21.862Z,88.92
2017-03-09T11:13:49.127Z,88.43
2017-03-09T11:15:02.006Z,88.82
2017-03-09T11:16:15.301Z,88.82
2017-03-09T11:17:28.013Z,88.34
2017-03-09T11:18:41.281Z,89.11
2017-03-09T11:19:54.554Z,88.92
2017-03-09T11:21:21.799Z,88.73
2017-03-09T11:24:01.793Z,88.39
2017-03-09T11:25:15.277Z,87.61
2017-03-09T11:26:28.543Z,87.61
2017-03-09T11:27:41.260Z,87.41
2017-03-09T11:28:54.525Z,88.48
2017-03-09T11:31:35.071Z,87.85
2017-03-09T11:32:48.362Z,87.76
2017-03-09T11:34:01.631Z,87.9
2017-03-09T11:35:14.908Z,87.9
2017-03-09T11:36:28.406Z,87.81
2017-03-09T11:37:55.658Z,87.61
2017-03-09T11:40:36.234Z,87.13
2017-03-09T11:41:48.969Z,87.23
2017-03-09T11:44:29.566Z,86.93
2017-03-09T11:45:42.319Z,87.03
2017-03-09T11:46:55.984Z,86.83
2017-03-09T11:49:36.526Z,87.17
2017-03-09T11:50:49.260Z,86.78
2017-03-09T11:52:02.559Z,87.41
2017-03-09T11:53:15.840Z,86.4
2017-03-09T11:54:42.531Z,86.93
2017-03-09T11:55:55.814Z,87.03
2017-03-09T11:57:09.332Z,87.71
2017-03-09T11:58:22.089Z,86.83
2017-03-09T12:01:02.063Z,86.98
2017-03-09T12:02:15.352Z,87.17
2017-03-09T12:03:28.642Z,86.4
2017-03-09T12:04:41.939Z,85.91
2017-03-09T12:05:55.234Z,85.91
2017-03-09T12:07:08.512Z,85.62
2017-03-09T12:08:22.005Z,85.72
2017-03-09T12:09:35.310Z,85.33
2017-03-09T12:10:48.025Z,85.42
2017-03-09T12:12:00.988Z,85.62
2017-03-09T12:13:14.282Z,85.08
2017-03-09T12:16:08.683Z,84.79
2017-03-09T12:17:21.994Z,84.79
2017-03-09T12:18:35.271Z,84.41
2017-03-09T12:19:47.998Z,84.41
2017-03-09T12:21:01.302Z,83.18
2017-03-09T12:22:14.630Z,83.28
2017-03-09T12:23:27.389Z,83.48
2017-03-09T12:24:41.109Z,82.41
2017-03-09T12:25:54.503Z,81.64
2017-03-09T12:27:07.312Z,82.32
2017-03-09T12:28:20.791Z,80.42
2017-03-09T12:29:33.788Z,80.17
2017-03-09T12:30:47.243Z,81.82
2017-03-09T12:32:14.777Z,79.97
2017-03-09T12:33:42.297Z,79.33
2017-03-09T12:36:21.982Z,76.81
2017-03-09T12:37:35.492Z,77.24
2017-03-09T12:38:48.461Z,76.75
2017-03-09T12:40:01.987Z,74.65
2017-03-09T12:41:14.895Z,75.53
2017-03-09T12:42:28.441Z,75.53
2017-03-09T12:43:41.910Z,75.04
2017-03-09T12:44:55.309Z,73.33
2017-03-09T12:46:08.606Z,73.82
2017-03-09T12:47:21.326Z,72.98
2017-03-09T12:48:34.055Z,72.39
2017-03-09T12:49:47.342Z,72.3
2017-03-09T12:51:00.835Z,72.3
2017-03-09T12:52:13.538Z,71.52
2017-03-09T12:53:26.244Z,71.17
2017-03-09T12:54:38.964Z,71.13
2017-03-09T12:55:52.237Z,71.42
2017-03-09T12:57:05.739Z,70.84
2017-03-09T12:58:19.031Z,71.42
2017-03-09T12:59:31.757Z,71.33
2017-03-09T13:00:45.046Z,71.52
2017-03-09T13:01:58.621Z,71.85
2017-03-09T13:03:11.902Z,71.72
2017-03-09T13:04:25.170Z,72.01
2017-03-09T13:05:37.883Z,72.01
2017-03-09T13:06:51.157Z,71.85
2017-03-09T13:08:04.440Z,71.17
2017-03-09T13:09:17.724Z,69.9
2017-03-09T13:10:30.459Z,68.19
2017-03-09T13:11:58.011Z,68.16
2017-03-09T13:13:11.306Z,67.86
2017-03-09T13:14:24.599Z,67.77
2017-03-09T13:15:51.860Z,66.99
2017-03-09T13:17:04.574Z,66.69
2017-03-09T13:18:17.853Z,67.47
2017-03-09T13:20:57.845Z,67.08
2017-03-09T13:22:10.564Z,66.69
2017-03-09T13:23:23.874Z,66.93
2017-03-09T13:24:36.604Z,65.78
2017-03-09T13:26:03.315Z,65.5
2017-03-09T13:27:16.804Z,65.72
2017-03-09T13:28:29.934Z,63.8
2017-03-09T13:29:57.364Z,63.6
2017-03-09T13:32:36.835Z,62.63
2017-03-09T13:33:50.132Z,63.21
2017-03-09T13:35:03.419Z,63.21
2017-03-09T13:36:17.500Z,63.77
2017-03-09T13:37:30.300Z,65.01
2017-03-09T13:38:43.807Z,65.11
2017-03-09T13:39:57.144Z,64.65
2017-03-09T13:41:09.879Z,64.75
2017-03-09T13:42:22.601Z,64.94
2017-03-09T13:43:35.900Z,64.65
2017-03-09T13:44:49.202Z,63.31
2017-03-09T13:46:01.340Z,63.51
2017-03-09T13:47:28.604Z,63.12
2017-03-09T13:48:41.346Z,63.02
2017-03-09T13:49:54.641Z,62.95
2017-03-09T13:51:08.153Z,62.95
2017-03-09T13:52:20.865Z,64.61
2017-03-09T13:53:34.155Z,64.29
2017-03-09T13:55:01.430Z,65.53
2017-03-09T13:56:14.761Z,65.78
2017-03-09T13:57:28.049Z,65.4
2017-03-09T13:58:41.934Z,65.98
2017-03-09T14:00:09.248Z,65.3
2017-03-09T14:01:23.400Z,65.33
2017-03-09T14:02:36.750Z,63.9
2017-03-09T14:03:50.323Z,62.73
2017-03-09T14:05:03.658Z,61.88
2017-03-09T14:06:30.383Z,61.82
2017-03-09T14:07:43.141Z,62.6
2017-03-09T14:09:10.470Z,62.7
2017-03-09T14:10:37.744Z,61.72
2017-03-09T14:11:50.463Z,62.5
2017-03-09T14:13:03.200Z,62.47
2017-03-09T14:14:30.550Z,62.3
2017-03-09T14:15:43.910Z,61.06
2017-03-09T14:16:57.330Z,59.4
2017-03-09T14:18:11.224Z,59.69
2017-03-09T14:19:23.792Z,60.57
2017-03-09T14:20:38.532Z,60.86
2017-03-09T14:21:52.578Z,60.86
2017-03-09T14:23:07.203Z,61.65
2017-03-09T14:24:20.541Z,61.74
2017-03-09T14:25:33.253Z,60.77
2017-03-09T14:26:46.836Z,60.86
2017-03-09T14:28:00.122Z,59.63
2017-03-09T14:29:13.435Z,58.48
2017-03-09T14:30:26.741Z,58.58
2017-03-09T14:31:40.029Z,59.99
2017-03-09T14:32:53.359Z,59.69
2017-03-09T14:34:06.663Z,59.53
2017-03-09T14:35:19.973Z,59.92
2017-03-09T14:36:33.283Z,58.65
2017-03-09T14:37:46.034Z,59.27
2017-03-09T14:38:59.329Z,58.38
2017-03-09T14:40:12.616Z,59.07
2017-03-09T14:41:24.783Z,59.59
2017-03-09T14:42:52.093Z,61.16
2017-03-09T14:44:05.639Z,61.13
2017-03-09T14:45:32.917Z,60.64
2017-03-09T14:46:46.207Z,60.67
2017-03-09T14:47:59.509Z,60.18
2017-03-09T14:49:26.779Z,61.84
2017-03-09T14:50:54.042Z,60.57
2017-03-09T14:52:07.333Z,60.86
2017-03-09T14:53:20.911Z,61.72
2017-03-09T14:54:48.174Z,60.77
2017-03-09T14:56:01.461Z,61.82
2017-03-09T14:57:14.769Z,62.27
2017-03-09T14:58:28.130Z,62.85
2017-03-09T14:59:59.800Z,62.95
2017-03-09T15:01:12.530Z,61.91
2017-03-09T15:02:25.252Z,61.72
2017-03-09T15:04:06.491Z,62.3
2017-03-09T15:05:19.802Z,62.85
2017-03-09T15:06:46.525Z,62.85
2017-03-09T15:08:03.845Z,63.44
2017-03-09T15:09:31.124Z,63.54
2017-03-09T15:10:44.414Z,62.7
2017-03-09T15:11:57.718Z,62.21
2017-03-09T15:13:10.441Z,63.34
2017-03-09T15:14:24.070Z,63.9
2017-03-09T15:15:37.962Z,64.29
2017-03-09T15:16:51.282Z,63.51
2017-03-09T15:18:04.036Z,63.02
2017-03-09T15:19:16.765Z,64.68
2017-03-09T15:20:29.524Z,63.6
2017-03-09T15:21:42.837Z,65.33
2017-03-09T15:22:56.154Z,64.84
2017-03-09T15:24:09.192Z,65.14
2017-03-09T15:25:22.156Z,64.26
2017-03-09T15:28:01.627Z,63.48
2017-03-09T15:29:14.915Z,64.48
2017-03-09T15:30:28.418Z,63.51
2017-03-09T15:31:41.192Z,63.7
2017-03-09T15:33:08.460Z,63.12
2017-03-09T15:34:21.770Z,63.6
2017-03-09T15:35:49.030Z,63.12
2017-03-09T15:37:01.769Z,63.12
2017-03-09T15:38:14.520Z,63.41
2017-03-09T15:39:27.265Z,64.06
2017-03-09T15:40:40.026Z,64.84
2017-03-09T15:42:07.645Z,64.72
2017-03-09T15:43:20.964Z,65.4
2017-03-09T15:44:33.687Z,64.72
2017-03-09T15:45:47.191Z,64.94
2017-03-09T15:47:00.746Z,64.45
2017-03-09T15:48:14.065Z,64.55
2017-03-09T15:49:41.338Z,64.94
2017-03-09T15:50:54.863Z,63.02
2017-03-09T15:52:07.618Z,62.92
2017-03-09T15:53:20.362Z,62.34
2017-03-09T15:54:33.663Z,62.41
2017-03-09T15:55:47.180Z,63.6
2017-03-09T15:57:00.480Z,61.95
2017-03-09T15:58:13.800Z,61.56
2017-03-09T15:59:27.095Z,61.56
2017-03-09T16:00:40.378Z,60.58
2017-03-09T16:01:53.735Z,61.56
2017-03-09T16:03:06.478Z,60.97
2017-03-09T16:04:19.791Z,60.97
2017-03-09T16:05:33.100Z,61.07
2017-03-09T16:06:46.403Z,61.07
2017-03-09T16:07:59.930Z,61.76
2017-03-09T16:09:12.679Z,60.88
2017-03-09T16:10:26.037Z,61.07
2017-03-09T16:11:39.350Z,61.56
2017-03-09T16:12:52.670Z,61.66
2017-03-09T16:14:06.025Z,61.07
2017-03-09T16:15:18.781Z,61.17
2017-03-09T16:16:32.079Z,60.39
2017-03-09T16:17:45.398Z,60.71
2017-03-09T16:18:58.921Z,60.32
2017-03-09T16:20:12.227Z,60.42
2017-03-09T16:21:24.980Z,60.61
2017-03-09T16:22:38.292Z,60.03
2017-03-09T16:23:51.642Z,60.32
2017-03-09T16:25:04.991Z,59.57
2017-03-09T16:26:18.287Z,59.57
2017-03-09T16:27:31.654Z,59.47
2017-03-09T16:28:45.123Z,59.64
2017-03-09T16:29:57.886Z,59.83
2017-03-09T16:31:11.193Z,59.25
2017-03-09T16:32:23.945Z,58.4
2017-03-09T16:33:36.671Z,60.35
2017-03-09T16:34:50.014Z,59.64
2017-03-09T16:36:03.316Z,58.89